createdAt,value
2023-01-29T00:02:10.032Z,48.78
2023-01-29T00:04:37.346Z,48.25
2023-01-29T00:07:04.059Z,51.63
2023-01-29T00:09:32.267Z,52.70
2023-01-29T00:11:58.886Z,51.17
2023-01-29T00:14:27.754Z,49.97
2023-01-29T00:16:54.694Z,49.50
2023-01-29T00:19:22.090Z,50.63
2023-01-29T00:21:48.707Z,49.17
2023-01-29T00:24:16.134Z,47.40
2023-01-29T00:26:43.082Z,48.85
2023-01-29T00:29:10.998Z,46.50
2023-01-29T00:31:37.752Z,46.03
2023-01-29T00:34:07.346Z,48.53
2023-01-29T00:36:34.049Z,46.90
2023-01-29T00:39:03.675Z,49.53
2023-01-29T00:41:50.654Z,48.22
2023-01-29T00:44:37.133Z,46.75
2023-01-29T00:47:05.034Z,47.72
2023-01-29T00:49:32.380Z,49.20
2023-01-29T00:52:17.534Z,52.95
2023-01-29T00:54:44.773Z,51.53
2023-01-29T00:57:11.522Z,52.35
2023-01-29T00:59:38.893Z,50.30
2023-01-29T01:02:24.384Z,50.80
2023-01-29T01:04:51.766Z,50.75
2023-01-29T01:07:18.815Z,48.33
2023-01-29T01:10:05.659Z,47.90
2023-01-29T01:12:32.900Z,44.90
2023-01-29T01:15:00.342Z,45.03
2023-01-29T01:17:27.185Z,45.35
2023-01-29T01:19:54.434Z,43.33
2023-01-29T01:22:21.069Z,46.15
2023-01-29T01:24:48.599Z,47.35
2023-01-29T01:27:15.248Z,47.08
2023-01-29T01:29:42.638Z,46.53
2023-01-29T01:32:09.819Z,47.10
2023-01-29T01:34:37.859Z,47.53
2023-01-29T01:37:04.754Z,46.95
2023-01-29T01:39:32.018Z,47.65
2023-01-29T01:41:58.675Z,48.58
2023-01-29T01:44:51.289Z,46.97
2023-01-29T01:47:49.122Z,35.30
2023-01-29T01:50:21.430Z,45.83
2023-01-29T01:52:52.534Z,45.65
2023-01-29T01:55:23.483Z,45.13
2023-01-29T01:57:55.843Z,45.65
2023-01-29T02:03:10.218Z,41.33
2023-01-29T02:05:58.029Z,44.17
2023-01-29T02:09:00.678Z,45.63
2023-01-29T02:11:28.039Z,43.13
2023-01-29T02:13:54.657Z,47.88
2023-01-29T02:16:25.762Z,44.38
2023-01-29T02:18:53.498Z,43.00
2023-01-29T02:21:35.713Z,42.58
2023-01-29T02:24:34.573Z,44.57
2023-01-29T02:27:33.593Z,41.40
2023-01-29T02:30:09.151Z,40.40
2023-01-29T02:32:54.452Z,41.05
2023-01-29T02:35:32.372Z,42.72
2023-01-29T02:38:18.400Z,42.30
2023-01-29T02:41:00.859Z,40.13
2023-01-29T02:43:36.204Z,42.33
2023-01-29T02:46:23.916Z,42.20
2023-01-29T02:49:00.215Z,42.22
2023-01-29T02:51:36.399Z,42.08
2023-01-29T02:54:08.725Z,41.00
2023-01-29T02:59:52.717Z,42.58
2023-01-29T03:02:28.533Z,41.28
2023-01-29T03:05:02.522Z,41.05
2023-01-29T03:07:44.321Z,40.75
2023-01-29T03:10:42.478Z,40.50
2023-01-29T03:13:27.289Z,39.88
2023-01-29T03:16:05.108Z,41.72
2023-01-29T03:18:45.886Z,41.13
2023-01-29T03:21:38.683Z,40.47
2023-01-29T03:24:27.741Z,30.77
2023-01-29T03:27:17.466Z,41.08
2023-01-29T03:30:06.323Z,41.05
2023-01-29T03:32:59.481Z,43.20
2023-01-29T03:35:37.089Z,43.58
2023-01-29T03:38:09.996Z,42.72
2023-01-29T03:40:40.341Z,39.97
2023-01-29T03:43:32.848Z,43.10
2023-01-29T03:46:10.897Z,41.13
2023-01-29T03:48:55.646Z,40.67
2023-01-29T03:51:41.411Z,41.60
2023-01-29T03:54:26.565Z,40.70
2023-01-29T03:57:15.302Z,40.90
2023-01-29T04:00:04.667Z,41.28
2023-01-29T04:03:02.713Z,43.40
2023-01-29T04:05:38.264Z,42.65
2023-01-29T04:08:21.050Z,41.97
2023-01-29T04:10:52.163Z,40.50
2023-01-29T04:13:20.132Z,43.90
2023-01-29T04:15:54.443Z,41.17
2023-01-29T04:18:33.365Z,43.90
2023-01-29T04:21:07.573Z,45.63
2023-01-29T04:23:34.380Z,42.75
2023-01-29T04:26:08.350Z,43.72
2023-01-29T04:28:52.039Z,44.85
2023-01-29T04:31:25.161Z,46.10
2023-01-29T04:34:00.785Z,45.35
2023-01-29T04:36:53.021Z,47.38
2023-01-29T04:40:03.706Z,46.67
2023-01-29T04:42:41.753Z,44.25
2023-01-29T04:45:25.478Z,46.00
2023-01-29T04:48:16.820Z,44.95
2023-01-29T04:51:12.892Z,44.65
2023-01-29T04:53:53.000Z,46.80
2023-01-29T04:56:42.382Z,49.00
2023-01-29T04:59:16.689Z,48.22
2023-01-29T05:01:44.104Z,48.50
2023-01-29T05:04:15.895Z,49.47
2023-01-29T05:06:46.598Z,49.47
2023-01-29T05:09:16.590Z,48.63
2023-01-29T05:11:46.151Z,51.70
2023-01-29T05:14:17.070Z,50.10
2023-01-29T05:16:47.077Z,49.65
2023-01-29T05:19:16.370Z,47.50
2023-01-29T05:21:46.544Z,47.65
2023-01-29T05:24:32.265Z,50.05
2023-01-29T05:27:17.620Z,49.78
2023-01-29T05:29:47.389Z,49.53
2023-01-29T05:32:15.521Z,49.05
2023-01-29T05:34:42.926Z,51.45
2023-01-29T05:37:10.623Z,51.53
2023-01-29T05:39:37.923Z,51.72
2023-01-29T05:42:04.613Z,51.38
2023-01-29T05:44:32.078Z,51.83
2023-01-29T05:46:58.690Z,50.70
2023-01-29T05:49:26.144Z,50.80
2023-01-29T05:51:52.769Z,53.80
2023-01-29T05:54:20.273Z,50.00
2023-01-29T05:56:46.953Z,49.63
2023-01-29T05:59:15.782Z,53.05
2023-01-29T06:01:42.552Z,51.17
2023-01-29T06:04:09.857Z,48.83
2023-01-29T06:06:36.479Z,51.42
2023-01-29T06:09:03.874Z,50.78
2023-01-29T06:11:30.489Z,51.20
2023-01-29T06:13:58.255Z,50.30
2023-01-29T06:16:24.911Z,54.08
2023-01-29T06:18:52.407Z,50.85
2023-01-29T06:21:20.123Z,51.83
2023-01-29T06:23:47.266Z,53.92
2023-01-29T06:26:16.458Z,51.80
2023-01-29T06:28:43.743Z,53.97
2023-01-29T06:31:31.417Z,51.03
2023-01-29T06:33:59.034Z,51.97
2023-01-29T06:36:25.840Z,52.47
2023-01-29T06:38:52.411Z,50.30
2023-01-29T06:41:25.496Z,52.50
2023-01-29T06:43:52.372Z,84.95
2023-01-29T06:46:19.640Z,70.18
2023-01-29T06:48:46.213Z,93.63
2023-01-29T06:51:13.840Z,73.68
2023-01-29T06:53:40.668Z,62.03
2023-01-29T06:56:09.112Z,56.08
2023-01-29T06:58:39.147Z,60.15
2023-01-29T07:01:09.412Z,57.33
2023-01-29T07:03:36.261Z,57.67
2023-01-29T07:06:04.335Z,60.65
2023-01-29T07:08:31.278Z,86.82
2023-01-29T07:11:02.500Z,83.28
2023-01-29T07:13:29.132Z,69.18
2023-01-29T07:16:04.331Z,57.67
2023-01-29T07:18:31.734Z,52.33
2023-01-29T07:20:59.069Z,67.07
2023-01-29T07:23:26.009Z,53.92
2023-01-29T07:25:53.265Z,53.05
2023-01-29T07:28:21.029Z,53.72
2023-01-29T07:30:48.305Z,53.72
2023-01-29T07:33:14.941Z,55.03
2023-01-29T07:35:43.501Z,50.33
2023-01-29T07:38:11.268Z,58.92
2023-01-29T07:40:39.293Z,56.45
2023-01-29T07:43:07.442Z,54.75
2023-01-29T07:45:36.535Z,54.60
2023-01-29T07:48:07.701Z,54.13
2023-01-29T07:50:35.772Z,53.08
2023-01-29T07:53:03.202Z,52.17
2023-01-29T07:55:31.292Z,52.03
2023-01-29T07:57:59.703Z,50.22
2023-01-29T08:00:27.536Z,51.03
2023-01-29T08:02:54.290Z,51.42
2023-01-29T08:05:21.600Z,54.17
2023-01-29T08:08:05.646Z,49.72
2023-01-29T08:10:34.500Z,50.67
2023-01-29T08:13:02.211Z,51.85
2023-01-29T08:15:30.052Z,53.67
2023-01-29T08:17:58.228Z,51.88
2023-01-29T08:20:26.015Z,52.47
2023-01-29T08:23:04.759Z,51.75
2023-01-29T08:25:31.853Z,49.13
2023-01-29T08:28:00.207Z,50.50
2023-01-29T08:30:29.064Z,51.72
2023-01-29T08:32:56.301Z,52.33
2023-01-29T08:35:23.581Z,52.33
2023-01-29T08:38:01.871Z,51.80
2023-01-29T08:40:31.663Z,50.40
2023-01-29T08:43:02.133Z,49.22
2023-01-29T08:45:30.469Z,50.97
2023-01-29T08:47:57.811Z,50.05
2023-01-29T08:50:24.624Z,52.08
2023-01-29T08:52:51.956Z,51.03
2023-01-29T08:55:18.956Z,49.05
2023-01-29T08:57:46.164Z,49.70
2023-01-29T09:00:14.789Z,50.88
2023-01-29T09:02:41.670Z,51.83
2023-01-29T09:05:09.514Z,50.45
2023-01-29T09:07:36.217Z,50.38
2023-01-29T09:10:03.917Z,50.15
2023-01-29T09:12:30.598Z,52.95
2023-01-29T09:14:57.912Z,54.22
2023-01-29T09:17:24.578Z,51.28
2023-01-29T09:19:53.308Z,55.70
2023-01-29T09:22:20.425Z,52.13
2023-01-29T09:24:47.764Z,51.97
2023-01-29T09:27:14.565Z,50.83
2023-01-29T09:29:41.873Z,49.60
2023-01-29T09:32:08.684Z,50.55
2023-01-29T09:34:35.957Z,51.58
2023-01-29T09:37:02.551Z,49.80
2023-01-29T09:39:30.110Z,49.85
2023-01-29T09:42:21.439Z,51.13
2023-01-29T09:45:00.202Z,49.30
2023-01-29T09:47:27.885Z,49.08
2023-01-29T09:50:15.311Z,48.60
2023-01-29T09:52:57.607Z,47.03
2023-01-29T09:55:29.256Z,47.15
2023-01-29T09:58:21.963Z,48.17
2023-01-29T10:01:13.388Z,46.33
2023-01-29T10:04:14.273Z,46.90
2023-01-29T10:06:59.226Z,44.13
2023-01-29T10:09:57.414Z,46.00
2023-01-29T10:12:43.061Z,45.95
2023-01-29T10:15:25.286Z,43.85
2023-01-29T10:18:16.382Z,44.78
2023-01-29T10:20:58.389Z,44.83
2023-01-29T10:23:52.123Z,47.60
2023-01-29T10:26:22.675Z,44.72
2023-01-29T10:28:52.523Z,43.42
2023-01-29T10:31:36.243Z,46.60
2023-01-29T10:34:13.059Z,44.78
2023-01-29T10:36:44.662Z,44.92
2023-01-29T10:39:25.988Z,45.55
2023-01-29T10:42:14.644Z,44.17
2023-01-29T10:45:17.970Z,44.05
2023-01-29T10:48:20.332Z,44.92
2023-01-29T10:51:16.222Z,44.25
2023-01-29T10:54:30.144Z,42.47
2023-01-29T10:57:28.224Z,45.13
2023-01-29T11:00:10.061Z,44.00
2023-01-29T11:02:36.751Z,43.35
2023-01-29T11:05:04.156Z,46.45
2023-01-29T11:07:31.949Z,43.53
2023-01-29T11:10:11.877Z,44.65
2023-01-29T11:12:39.339Z,44.13
2023-01-29T11:15:24.810Z,42.13
2023-01-29T11:18:06.240Z,42.38
2023-01-29T11:20:34.767Z,42.35
2023-01-29T11:23:01.568Z,43.53
2023-01-29T11:25:30.204Z,41.97
2023-01-29T11:28:00.794Z,42.05
2023-01-29T11:30:34.774Z,40.75
2023-01-29T11:33:31.086Z,40.40
2023-01-29T11:35:59.222Z,39.20
2023-01-29T11:38:28.057Z,38.33
2023-01-29T11:41:14.315Z,40.80
2023-01-29T11:43:40.976Z,39.58
2023-01-29T11:46:15.460Z,38.28
2023-01-29T11:48:46.095Z,38.70
2023-01-29T11:51:26.108Z,37.97
2023-01-29T11:54:02.679Z,38.33
2023-01-29T11:56:35.159Z,40.08
2023-01-29T11:59:05.976Z,38.97
2023-01-29T12:01:36.632Z,37.53
2023-01-29T12:04:11.659Z,37.92
2023-01-29T12:06:44.201Z,37.53
2023-01-29T12:09:17.567Z,37.75
2023-01-29T12:11:44.336Z,38.78
2023-01-29T12:14:33.566Z,36.53
2023-01-29T12:17:25.464Z,39.53
2023-01-29T12:19:59.888Z,40.15
2023-01-29T12:22:48.714Z,46.58
2023-01-29T12:25:34.432Z,38.65
2023-01-29T12:28:19.252Z,37.03
2023-01-29T12:30:49.711Z,39.83
2023-01-29T12:33:28.385Z,36.63
2023-01-29T12:36:21.716Z,36.85
2023-01-29T12:38:48.485Z,36.55
2023-01-29T12:41:50.317Z,42.10
2023-01-29T12:44:32.225Z,34.72
2023-01-29T12:47:02.129Z,37.53
2023-01-29T12:49:34.764Z,36.58
2023-01-29T12:52:09.437Z,34.55
2023-01-29T12:54:44.484Z,37.58
2023-01-29T12:57:24.061Z,34.55
2023-01-29T13:00:01.189Z,35.50
2023-01-29T13:02:33.906Z,34.38
2023-01-29T13:05:15.508Z,33.05
2023-01-29T13:07:47.363Z,32.50
2023-01-29T13:10:19.404Z,33.63
2023-01-29T13:12:58.464Z,33.03
2023-01-29T13:15:38.370Z,33.03
2023-01-29T13:18:33.421Z,33.72
2023-01-29T13:21:01.840Z,34.20
2023-01-29T13:23:46.860Z,34.50
2023-01-29T13:26:19.238Z,33.67
2023-01-29T13:28:47.048Z,32.30
2023-01-29T13:31:42.008Z,39.88
2023-01-29T13:34:35.094Z,34.38
2023-01-29T13:37:11.470Z,36.15
2023-01-29T13:39:48.441Z,35.22
2023-01-29T13:42:22.105Z,39.78
2023-01-29T13:44:51.176Z,36.17
2023-01-29T13:47:28.901Z,37.75
2023-01-29T13:50:07.847Z,38.40
2023-01-29T13:52:46.412Z,35.05
2023-01-29T13:55:22.479Z,34.10
2023-01-29T13:57:53.883Z,36.30
2023-01-29T14:00:22.841Z,33.67
2023-01-29T14:02:55.563Z,34.13
2023-01-29T14:05:32.240Z,33.55
2023-01-29T14:08:05.663Z,32.33
2023-01-29T14:10:35.038Z,31.92
2023-01-29T14:13:04.433Z,33.60
2023-01-29T14:15:34.378Z,34.20
2023-01-29T14:18:20.091Z,41.45
2023-01-29T14:20:47.489Z,36.72
2023-01-29T14:23:41.354Z,36.92
2023-01-29T14:26:38.802Z,32.50
2023-01-29T14:29:25.585Z,32.55
2023-01-29T14:32:04.501Z,33.75
2023-01-29T14:34:41.347Z,37.88
2023-01-29T14:37:15.072Z,31.33
2023-01-29T14:39:50.766Z,40.75
2023-01-29T14:42:25.796Z,32.83
2023-01-29T14:44:55.395Z,38.95
2023-01-29T14:47:43.193Z,35.00
2023-01-29T14:50:38.779Z,34.85
2023-01-29T14:53:27.937Z,30.88
2023-01-29T14:55:59.505Z,29.52
2023-01-29T14:58:36.497Z,32.83
2023-01-29T15:01:06.875Z,30.52
2023-01-29T15:03:49.648Z,31.95
2023-01-29T15:06:22.871Z,32.97
2023-01-29T15:08:56.857Z,32.55
2023-01-29T15:11:44.153Z,32.97
2023-01-29T15:14:18.909Z,32.35
2023-01-29T15:16:46.190Z,31.92
2023-01-29T15:19:24.817Z,34.03
2023-01-29T15:22:14.489Z,32.50
2023-01-29T15:24:43.340Z,32.92
2023-01-29T15:27:17.559Z,34.17
2023-01-29T15:29:50.769Z,33.75
2023-01-29T15:32:33.719Z,33.95
2023-01-29T15:35:01.814Z,33.83
2023-01-29T15:37:32.177Z,33.60
2023-01-29T15:40:00.115Z,33.95
2023-01-29T15:42:44.546Z,35.63
2023-01-29T15:45:32.014Z,33.03
2023-01-29T15:48:07.766Z,36.67
2023-01-29T15:50:39.121Z,40.03
2023-01-29T15:53:09.894Z,39.25
2023-01-29T15:55:36.747Z,34.38
2023-01-29T15:58:04.353Z,36.30
2023-01-29T16:00:31.385Z,34.97
2023-01-29T16:03:01.670Z,35.63
2023-01-29T16:05:30.547Z,36.00
2023-01-29T16:07:59.751Z,35.03
2023-01-29T16:10:28.941Z,33.85
2023-01-29T16:12:56.649Z,34.92
2023-01-29T16:15:38.367Z,35.35
2023-01-29T16:18:30.391Z,33.13
2023-01-29T16:21:01.390Z,35.15
2023-01-29T16:23:31.452Z,34.00
2023-01-29T16:26:06.689Z,34.92
2023-01-29T16:28:39.891Z,33.05
2023-01-29T16:33:37.146Z,37.42
2023-01-29T16:36:13.681Z,36.22
2023-01-29T16:38:44.511Z,43.75
2023-01-29T16:41:16.477Z,39.40
2023-01-29T16:44:14.007Z,40.17
2023-01-29T16:46:53.186Z,43.45
2023-01-29T16:49:25.944Z,42.75
2023-01-29T16:51:56.568Z,43.60
2023-01-29T16:54:27.600Z,37.20
2023-01-29T16:57:00.599Z,39.50
2023-01-29T16:59:39.605Z,37.08
2023-01-29T17:02:27.303Z,38.47
2023-01-29T17:04:58.469Z,38.10
2023-01-29T17:07:26.448Z,38.80
2023-01-29T17:09:56.164Z,38.17
2023-01-29T17:12:26.880Z,38.10
2023-01-29T17:14:56.578Z,39.97
2023-01-29T17:17:30.169Z,37.90
2023-01-29T17:19:58.166Z,36.85
2023-01-29T17:22:25.210Z,38.00
2023-01-29T17:24:51.903Z,36.33
2023-01-29T17:27:21.458Z,35.83
2023-01-29T17:29:48.768Z,35.53
2023-01-29T17:32:19.195Z,35.03
2023-01-29T17:34:46.795Z,35.35
2023-01-29T17:37:15.691Z,34.67
2023-01-29T17:39:43.592Z,36.60
2023-01-29T17:42:13.781Z,34.70
2023-01-29T17:44:41.842Z,35.80
2023-01-29T17:47:15.528Z,34.60
2023-01-29T17:49:42.661Z,35.40
2023-01-29T17:52:09.940Z,34.97
2023-01-29T17:54:36.664Z,35.50
2023-01-29T17:57:04.380Z,34.30
2023-01-29T17:59:33.363Z,32.97
2023-01-29T18:02:00.718Z,35.53
2023-01-29T18:04:27.394Z,34.65
2023-01-29T18:06:55.892Z,36.08
2023-01-29T18:09:22.560Z,34.88
2023-01-29T18:11:51.170Z,33.20
2023-01-29T18:14:18.007Z,36.80
2023-01-29T18:16:45.431Z,33.63
2023-01-29T18:19:20.827Z,33.88
2023-01-29T18:21:49.232Z,34.70
2023-01-29T18:24:16.383Z,34.72
2023-01-29T18:26:43.461Z,34.13
2023-01-29T18:29:10.864Z,33.20
2023-01-29T18:31:37.590Z,34.30
2023-01-29T18:34:04.963Z,33.50
2023-01-29T18:36:31.874Z,31.48
2023-01-29T18:38:59.247Z,32.00
2023-01-29T18:41:25.872Z,33.35
2023-01-29T18:43:53.488Z,32.45
2023-01-29T18:46:20.621Z,30.98
2023-01-29T18:48:47.884Z,33.03
2023-01-29T18:51:14.493Z,30.77
2023-01-29T18:53:41.731Z,30.23
2023-01-29T18:56:10.271Z,31.50
2023-01-29T18:58:37.814Z,31.48
2023-01-29T19:01:09.072Z,30.30
2023-01-29T19:03:36.746Z,30.67
2023-01-29T19:06:05.099Z,30.70
2023-01-29T19:08:32.861Z,30.35
2023-01-29T19:11:02.292Z,30.80
2023-01-29T19:13:32.725Z,29.58
2023-01-29T19:15:59.418Z,29.92
2023-01-29T19:18:27.855Z,31.08
2023-01-29T19:20:54.991Z,30.27
2023-01-29T19:23:22.456Z,30.13
2023-01-29T19:25:49.102Z,29.55
2023-01-29T19:28:16.429Z,30.42
2023-01-29T19:30:43.236Z,32.67
2023-01-29T19:33:10.913Z,33.45
2023-01-29T19:35:37.553Z,31.63
2023-01-29T19:38:05.092Z,32.78
2023-01-29T19:40:31.969Z,35.05
2023-01-29T19:42:59.701Z,35.85
2023-01-29T19:45:49.026Z,35.85
2023-01-29T19:48:22.070Z,35.47
2023-01-29T19:51:08.703Z,37.10
2023-01-29T19:53:36.815Z,35.53
2023-01-29T19:56:12.631Z,34.65
2023-01-29T19:58:39.479Z,33.20
2023-01-29T20:01:31.236Z,36.67
2023-01-29T20:03:58.034Z,35.38
2023-01-29T20:06:28.470Z,33.22
2023-01-29T20:08:55.141Z,35.97
2023-01-29T20:11:23.810Z,35.75
2023-01-29T20:13:52.307Z,33.88
2023-01-29T20:16:20.459Z,34.83
2023-01-29T20:18:47.141Z,33.50
2023-01-29T20:21:16.663Z,35.28
2023-01-29T20:23:45.691Z,34.70
2023-01-29T20:26:15.867Z,32.13
2023-01-29T20:28:43.094Z,34.33
2023-01-29T20:31:10.758Z,38.45
2023-01-29T20:33:39.447Z,33.60
2023-01-29T20:36:09.259Z,34.97
2023-01-29T20:38:36.194Z,33.35
2023-01-29T20:41:05.045Z,32.58
2023-01-29T20:43:32.018Z,33.63
2023-01-29T20:45:59.930Z,33.03
2023-01-29T20:48:27.351Z,34.85
2023-01-29T20:50:54.259Z,33.25
2023-01-29T20:53:21.560Z,34.20
2023-01-29T20:55:48.331Z,35.53
2023-01-29T20:58:15.723Z,33.03
2023-01-29T21:00:42.366Z,33.60
2023-01-29T21:03:09.760Z,32.38
2023-01-29T21:05:36.392Z,32.25
2023-01-29T21:08:03.766Z,32.53
2023-01-29T21:10:30.360Z,32.40
2023-01-29T21:12:57.637Z,33.90
2023-01-29T21:15:27.121Z,34.05
2023-01-29T21:17:54.928Z,33.50
2023-01-29T21:20:21.601Z,32.25
2023-01-29T21:22:49.337Z,33.55
2023-01-29T21:25:17.331Z,34.72
2023-01-29T21:27:45.001Z,31.20
2023-01-29T21:30:12.048Z,34.30
2023-01-29T21:32:39.460Z,32.97
2023-01-29T21:35:07.793Z,33.10
2023-01-29T21:37:38.057Z,32.60
2023-01-29T21:40:06.445Z,32.45
2023-01-29T21:42:52.304Z,32.85
2023-01-29T21:45:19.381Z,33.60
2023-01-29T21:47:46.798Z,35.17
2023-01-29T21:50:13.545Z,35.40
2023-01-29T21:52:40.777Z,35.15
2023-01-29T21:55:07.754Z,34.17
2023-01-29T21:57:34.675Z,33.45
2023-01-29T22:00:01.589Z,31.67
2023-01-29T22:02:32.377Z,35.22
2023-01-29T22:05:17.786Z,34.58
2023-01-29T22:07:46.533Z,34.70
2023-01-29T22:10:13.510Z,35.47
2023-01-29T22:12:40.591Z,34.42
2023-01-29T22:15:08.389Z,35.38
2023-01-29T22:17:35.744Z,36.25
2023-01-29T22:20:02.452Z,33.67
2023-01-29T22:22:29.835Z,36.10
2023-01-29T22:24:58.650Z,36.30
2023-01-29T22:27:26.057Z,36.88
2023-01-29T22:29:52.697Z,36.75
2023-01-29T22:32:20.209Z,36.00
2023-01-29T22:34:46.827Z,37.10
2023-01-29T22:37:14.094Z,37.38
2023-01-29T22:39:40.686Z,35.95
2023-01-29T22:42:08.378Z,37.30
2023-01-29T22:44:35.119Z,34.78
2023-01-29T22:47:02.488Z,37.05
2023-01-29T22:49:30.185Z,37.75
2023-01-29T22:52:13.199Z,37.28
2023-01-29T22:54:42.318Z,38.80
2023-01-29T22:57:14.735Z,36.70
2023-01-29T22:59:41.341Z,36.35
2023-01-29T23:02:09.763Z,37.95
2023-01-29T23:04:36.730Z,38.40
2023-01-29T23:07:04.438Z,36.38
2023-01-29T23:09:31.093Z,36.75
2023-01-29T23:11:58.373Z,35.78
2023-01-29T23:14:24.974Z,37.83
2023-01-29T23:16:52.461Z,39.08
2023-01-29T23:19:19.205Z,37.00
2023-01-29T23:21:46.171Z,37.40
2023-01-29T23:24:12.976Z,37.80
2023-01-29T23:26:58.886Z,36.58
2023-01-29T23:29:25.857Z,36.17
2023-01-29T23:31:52.559Z,37.55
2023-01-29T23:34:20.656Z,37.10
2023-01-29T23:36:47.383Z,35.38
2023-01-29T23:39:14.699Z,36.67
2023-01-29T23:41:42.027Z,36.58
2023-01-29T23:44:08.806Z,37.25
2023-01-29T23:46:36.179Z,36.03
2023-01-29T23:49:02.997Z,38.20
2023-01-29T23:51:30.430Z,36.90
2023-01-29T23:53:57.273Z,35.58
2023-01-29T23:56:24.980Z,36.22
2023-01-29T23:58:55.987Z,38.03
